Meade, Kansas
Current Conditions -  °F | °C
As of 6:55 AM on Monday 29 Dec 2014 (Local Time) from KLBL Reporting Station
Clear Clear  
Wind Chill:   Ceiling: Unl
Heat Index: 16°   Visibility: 10mi
Dew Point:   Wind: 5mph
Humidity: 73%   Direction: 350°N
Pressure: 30.06"   Gusts: NA
Location:  37.29°N, 100.34°W
Report Text: KLBL 291255Z AUTO 35004KT 10SM CLR M09/M13 A3006 RMK AO1
Loading
Personal Weather Stations






























Interactive Weather Map New forecast layout! Learn more

10-Day Weather Forecast

Advertisements
Track Severe Weather on mobile